createdAt,value
2022-08-09T00:01:05.488Z,52.66
2022-08-09T00:04:05.873Z,52.80
2022-08-09T00:06:24.031Z,52.72
2022-08-09T00:08:52.048Z,52.68
2022-08-09T00:11:24.963Z,53.23
2022-08-09T00:13:52.009Z,53.69
2022-08-09T00:16:26.546Z,53.86
2022-08-09T00:19:09.445Z,53.60
2022-08-09T00:21:38.203Z,53.60
2022-08-09T00:24:22.181Z,53.84
2022-08-09T00:26:50.619Z,53.64
2022-08-09T00:29:39.664Z,53.81
2022-08-09T00:32:03.841Z,54.24
2022-08-09T00:34:32.579Z,54.21
2022-08-09T00:37:00.629Z,53.99
2022-08-09T00:40:13.899Z,54.82
2022-08-09T00:44:16.636Z,54.62
2022-08-09T00:45:00.009Z,54.71
2022-08-09T00:47:33.133Z,54.88
2022-08-09T00:50:02.821Z,55.01
2022-08-09T00:52:31.113Z,55.07
2022-08-09T00:55:01.935Z,55.50
2022-08-09T00:57:33.783Z,55.61
2022-08-09T01:00:02.853Z,55.58
2022-08-09T01:02:32.728Z,55.53
2022-08-09T01:05:14.009Z,55.42
2022-08-09T01:08:19.456Z,55.28
2022-08-09T01:11:17.928Z,55.20
2022-08-09T01:13:58.567Z,55.15
2022-08-09T01:16:32.252Z,55.60
2022-08-09T01:19:04.945Z,55.46
2022-08-09T01:21:53.561Z,55.65
2022-08-09T01:24:39.478Z,55.67
2022-08-09T01:27:13.319Z,56.20
2022-08-09T01:29:56.433Z,55.78
2022-08-09T01:32:34.712Z,55.71
2022-08-09T01:35:28.407Z,55.68
2022-08-09T01:38:10.095Z,55.87
2022-08-09T01:40:44.988Z,55.99
2022-08-09T01:43:20.962Z,55.85
2022-08-09T01:45:53.037Z,56.52
2022-08-09T01:48:29.590Z,56.16
2022-08-09T01:50:59.416Z,56.30
2022-08-09T01:53:28.870Z,56.68
2022-08-09T01:55:57.017Z,56.65
2022-08-09T01:58:25.632Z,56.95
2022-08-09T02:00:57.911Z,57.45
2022-08-09T02:03:25.457Z,56.86
2022-08-09T02:06:06.418Z,57.06
2022-08-09T02:08:57.546Z,57.32
2022-08-09T02:11:42.725Z,57.57
2022-08-09T02:14:15.799Z,57.50
2022-08-09T02:17:05.017Z,57.55
2022-08-09T02:19:43.099Z,57.70
2022-08-09T02:22:35.701Z,57.64
2022-08-09T02:25:07.068Z,57.48
2022-08-09T02:27:58.293Z,57.54
2022-08-09T02:30:26.556Z,58.04
2022-08-09T02:32:54.986Z,58.37
2022-08-09T02:36:02.099Z,58.46
2022-08-09T02:38:27.937Z,58.64
2022-08-09T02:41:01.810Z,58.19
2022-08-09T02:43:53.772Z,57.92
2022-08-09T02:46:18.845Z,57.80
2022-08-09T02:48:47.297Z,58.05
2022-08-09T02:51:20.206Z,58.19
2022-08-09T02:54:00.417Z,58.69
2022-08-09T02:56:30.297Z,58.66
2022-08-09T02:58:57.815Z,58.53
2022-08-09T03:01:29.386Z,58.56
2022-08-09T03:04:17.660Z,58.48
2022-08-09T03:06:48.782Z,59.16
2022-08-09T03:09:16.403Z,59.28
2022-08-09T03:12:09.897Z,58.88
2022-08-09T03:14:31.877Z,58.69
2022-08-09T03:17:01.843Z,59.35
2022-08-09T03:19:59.617Z,59.22
2022-08-09T03:22:24.932Z,59.09
2022-08-09T03:25:21.898Z,59.43
2022-08-09T03:27:52.244Z,59.45
2022-08-09T03:30:30.196Z,59.55
2022-08-09T03:33:05.798Z,59.74
2022-08-09T03:35:44.301Z,59.57
2022-08-09T03:38:30.661Z,60.26
2022-08-09T03:40:58.025Z,61.10
2022-08-09T03:43:25.243Z,61.06
2022-08-09T03:46:04.882Z,60.61
2022-08-09T03:48:51.777Z,60.46
2022-08-09T03:51:54.124Z,61.04
2022-08-09T03:54:11.062Z,61.39
2022-08-09T03:56:41.266Z,61.79
2022-08-09T03:59:17.089Z,61.07
2022-08-09T04:01:50.477Z,61.23
2022-08-09T04:04:17.351Z,61.47
2022-08-09T04:06:49.211Z,61.25
2022-08-09T04:09:48.152Z,61.71
2022-08-09T04:12:11.992Z,62.01
2022-08-09T04:15:01.830Z,61.17
2022-08-09T04:17:37.687Z,61.23
2022-08-09T04:20:07.099Z,61.74
2022-08-09T04:22:34.160Z,61.78
2022-08-09T04:25:03.066Z,62.38
2022-08-09T04:27:30.479Z,61.85
2022-08-09T04:29:59.664Z,62.02
2022-08-09T04:32:33.824Z,62.36
2022-08-09T04:35:04.639Z,62.12
2022-08-09T04:37:45.713Z,62.36
2022-08-09T04:40:28.654Z,62.60
2022-08-09T04:43:00.870Z,62.94
2022-08-09T04:45:30.580Z,62.54
2022-08-09T04:48:02.085Z,62.59
2022-08-09T04:50:35.125Z,62.12
2022-08-09T04:53:11.499Z,62.31
2022-08-09T04:55:42.168Z,62.41
2022-08-09T04:58:29.947Z,62.52
2022-08-09T05:01:00.585Z,62.43
2022-08-09T05:03:41.201Z,63.85
2022-08-09T05:06:26.809Z,63.66
2022-08-09T05:09:00.224Z,63.43
2022-08-09T05:11:30.463Z,63.45
2022-08-09T05:13:58.725Z,63.86
2022-08-09T05:16:31.456Z,63.80
2022-08-09T05:18:59.840Z,63.58
2022-08-09T05:21:30.046Z,64.46
2022-08-09T05:24:04.047Z,64.36
2022-08-09T05:26:36.714Z,64.40
2022-08-09T05:29:04.482Z,64.40
2022-08-09T05:31:44.207Z,64.45
2022-08-09T05:34:16.970Z,64.54
2022-08-09T05:36:44.233Z,64.60
2022-08-09T05:39:28.283Z,64.96
2022-08-09T05:41:55.310Z,65.01
2022-08-09T05:44:22.243Z,65.37
2022-08-09T05:46:55.631Z,65.06
2022-08-09T05:50:31.068Z,64.97
2022-08-09T05:52:09.960Z,65.04
2022-08-09T05:54:36.959Z,64.25
2022-08-09T05:57:06.383Z,62.17
2022-08-09T05:59:33.003Z,61.67
2022-08-09T06:01:59.989Z,62.22
2022-08-09T06:04:35.060Z,62.10
2022-08-09T06:07:02.212Z,61.52
2022-08-09T06:10:01.701Z,60.93
2022-08-09T06:12:15.102Z,60.17
2022-08-09T06:14:43.637Z,60.34
2022-08-09T06:17:10.361Z,60.19
2022-08-09T06:19:37.019Z,59.94
2022-08-09T06:22:04.801Z,59.71
2022-08-09T06:24:31.292Z,59.41
2022-08-09T06:26:58.072Z,59.47
2022-08-09T06:29:26.879Z,59.35
2022-08-09T06:32:08.515Z,58.79
2022-08-09T06:34:40.188Z,58.67
2022-08-09T06:37:10.120Z,59.60
2022-08-09T06:39:48.181Z,58.64
2022-08-09T06:42:24.955Z,58.61
2022-08-09T06:44:57.369Z,58.20
2022-08-09T06:47:24.122Z,57.96
2022-08-09T06:50:14.754Z,57.65
2022-08-09T06:52:45.860Z,58.73
2022-08-09T06:55:15.487Z,58.09
2022-08-09T06:58:02.570Z,57.30
2022-08-09T07:00:54.523Z,57.26
2022-08-09T07:03:16.383Z,58.43
2022-08-09T07:05:58.199Z,57.15
2022-08-09T07:08:30.609Z,57.24
2022-08-09T07:10:57.243Z,57.08
2022-08-09T07:13:29.564Z,57.37
2022-08-09T07:16:41.866Z,56.58
2022-08-09T07:18:44.098Z,56.79
2022-08-09T07:21:14.130Z,56.08
2022-08-09T07:23:56.541Z,55.50
2022-08-09T07:26:25.091Z,55.44
2022-08-09T07:29:09.070Z,54.91
2022-08-09T07:31:45.420Z,55.09
2022-08-09T07:34:20.325Z,55.26
2022-08-09T07:36:48.293Z,54.32
2022-08-09T07:39:20.396Z,54.24
2022-08-09T07:42:02.535Z,54.03
2022-08-09T07:44:32.964Z,54.37
2022-08-09T07:47:16.256Z,53.17
2022-08-09T07:50:04.473Z,52.83
2022-08-09T07:52:29.779Z,52.57
2022-08-09T07:54:56.690Z,52.33
2022-08-09T07:57:24.033Z,52.43
2022-08-09T08:00:02.766Z,52.58
2022-08-09T08:02:42.452Z,51.60
2022-08-09T08:05:19.023Z,52.73
2022-08-09T08:08:43.437Z,51.46
2022-08-09T08:10:34.417Z,51.60
2022-08-09T08:13:01.241Z,51.59
2022-08-09T08:15:30.782Z,51.78
2022-08-09T08:18:02.078Z,51.24
2022-08-09T08:20:32.768Z,50.70
2022-08-09T08:23:06.630Z,50.47
2022-08-09T08:25:48.275Z,49.77
2022-08-09T08:28:18.060Z,50.41
2022-08-09T08:30:52.920Z,50.71
2022-08-09T08:33:23.088Z,50.43
2022-08-09T08:35:59.531Z,49.16
2022-08-09T08:38:28.843Z,49.37
2022-08-09T08:40:56.773Z,49.22
2022-08-09T08:43:24.587Z,49.31
2022-08-09T08:46:04.036Z,49.26
2022-08-09T08:48:51.540Z,48.73
2022-08-09T08:51:21.033Z,47.96
2022-08-09T08:54:03.639Z,48.28
2022-08-09T08:56:35.287Z,47.73
2022-08-09T08:59:08.001Z,47.40
2022-08-09T09:01:52.291Z,47.45
2022-08-09T09:04:31.092Z,47.65
2022-08-09T09:07:08.398Z,47.00
2022-08-09T09:09:57.900Z,47.03
2022-08-09T09:12:29.132Z,45.98
2022-08-09T09:14:59.589Z,46.28
2022-08-09T09:17:41.109Z,46.55
2022-08-09T09:20:15.386Z,44.50
2022-08-09T09:23:01.637Z,43.64
2022-08-09T09:26:01.911Z,43.96
2022-08-09T09:29:02.905Z,45.42
2022-08-09T09:32:06.987Z,44.09
2022-08-09T09:34:18.037Z,43.94
2022-08-09T09:36:51.031Z,44.71
2022-08-09T09:39:23.333Z,44.35
2022-08-09T09:41:50.989Z,44.76
2022-08-09T09:44:35.322Z,44.54
2022-08-09T09:47:09.285Z,43.86
2022-08-09T09:50:07.035Z,42.75
2022-08-09T09:52:37.167Z,43.09
2022-08-09T09:55:28.307Z,42.74
2022-08-09T09:58:19.339Z,42.74
2022-08-09T10:00:55.482Z,42.65
2022-08-09T10:03:56.281Z,40.31
2022-08-09T10:06:32.265Z,40.40
2022-08-09T10:09:11.903Z,41.78
2022-08-09T10:12:00.558Z,42.07
2022-08-09T10:14:35.144Z,40.90
2022-08-09T10:17:24.089Z,40.60
2022-08-09T10:19:59.940Z,40.82
2022-08-09T10:22:33.069Z,40.02
2022-08-09T10:25:03.449Z,39.35
2022-08-09T10:27:55.880Z,39.02
2022-08-09T10:34:07.655Z,37.75
2022-08-09T10:36:00.966Z,37.10
2022-08-09T10:38:54.390Z,36.35
2022-08-09T10:41:17.796Z,36.60
2022-08-09T10:44:01.183Z,37.20
2022-08-09T10:46:47.601Z,38.28
2022-08-09T10:49:49.996Z,35.67
2022-08-09T10:52:27.547Z,35.06
2022-08-09T10:54:55.267Z,34.28
2022-08-09T10:57:23.454Z,34.44
2022-08-09T10:59:58.012Z,33.65
2022-08-09T11:03:13.711Z,34.68
2022-08-09T11:05:30.223Z,33.59
2022-08-09T11:08:35.743Z,32.88
2022-08-09T11:11:10.487Z,32.64
2022-08-09T11:13:50.339Z,32.98
2022-08-09T11:16:35.714Z,33.20
2022-08-09T11:19:10.725Z,32.77
2022-08-09T11:21:57.417Z,32.79
2022-08-09T11:24:57.875Z,32.63
2022-08-09T11:28:04.332Z,31.98
2022-08-09T11:30:33.826Z,33.59
2022-08-09T11:33:09.718Z,32.03
2022-08-09T11:35:49.443Z,32.21
2022-08-09T11:38:34.262Z,31.52
2022-08-09T11:41:38.526Z,30.34
2022-08-09T11:44:08.208Z,31.91
2022-08-09T11:46:57.172Z,31.80
2022-08-09T11:50:55.104Z,32.94
2022-08-09T11:53:59.695Z,32.59
2022-08-09T11:55:52.397Z,30.62
2022-08-09T11:58:32.738Z,32.78
2022-08-09T12:01:08.898Z,31.48
2022-08-09T12:03:57.311Z,32.16
2022-08-09T12:06:32.668Z,31.56
2022-08-09T12:09:05.664Z,31.23
2022-08-09T12:11:44.622Z,31.26
2022-08-09T12:14:28.777Z,32.23
2022-08-09T12:17:28.348Z,30.86
2022-08-09T12:19:59.768Z,32.22
2022-08-09T12:22:27.755Z,31.31
2022-08-09T12:25:16.541Z,32.06
2022-08-09T12:29:11.081Z,31.97
2022-08-09T12:30:36.912Z,30.62
2022-08-09T12:33:07.342Z,30.33
2022-08-09T12:35:40.960Z,30.19
2022-08-09T12:38:37.299Z,30.09
2022-08-09T12:41:05.430Z,29.88
2022-08-09T12:44:06.041Z,30.85
2022-08-09T12:46:22.774Z,31.27
2022-08-09T12:48:52.112Z,31.50
2022-08-09T12:51:52.702Z,31.06
2022-08-09T12:54:08.389Z,30.74
2022-08-09T12:56:50.953Z,29.75
2022-08-09T12:59:24.047Z,30.95
2022-08-09T13:01:59.591Z,31.48
2022-08-09T13:04:35.880Z,30.87
2022-08-09T13:07:16.201Z,30.82
2022-08-09T13:09:52.874Z,29.82
2022-08-09T13:12:26.708Z,31.86
2022-08-09T13:15:04.479Z,32.97
2022-08-09T13:18:02.703Z,30.97
2022-08-09T13:20:37.194Z,31.32
2022-08-09T13:24:15.905Z,31.00
2022-08-09T13:26:03.392Z,30.22
2022-08-09T13:28:34.326Z,29.94
2022-08-09T13:32:13.653Z,30.19
2022-08-09T13:33:54.808Z,30.83
2022-08-09T13:36:38.819Z,31.30
2022-08-09T13:41:52.251Z,29.73
2022-08-09T13:42:12.988Z,30.82
2022-08-09T13:44:41.991Z,30.61
2022-08-09T13:47:26.989Z,31.71
2022-08-09T13:50:08.703Z,32.16
2022-08-09T13:52:39.943Z,31.55
2022-08-09T13:55:13.478Z,31.95
2022-08-09T13:57:56.291Z,30.40
2022-08-09T14:00:27.261Z,29.98
2022-08-09T14:03:04.330Z,31.51
2022-08-09T14:05:58.212Z,31.27
2022-08-09T14:08:28.335Z,31.16
2022-08-09T14:10:55.261Z,31.70
2022-08-09T14:13:28.267Z,30.58
2022-08-09T14:16:16.174Z,29.65
2022-08-09T14:18:49.471Z,29.84
2022-08-09T14:21:22.299Z,29.89
2022-08-09T14:23:54.857Z,30.24
2022-08-09T14:26:31.491Z,29.72
2022-08-09T14:29:00.822Z,29.90
2022-08-09T14:31:36.092Z,29.83
2022-08-09T14:34:17.423Z,29.98
2022-08-09T14:36:45.045Z,30.67
2022-08-09T14:39:12.037Z,31.23
2022-08-09T14:41:40.174Z,30.78
2022-08-09T14:44:11.173Z,30.79
2022-08-09T14:47:04.824Z,31.17
2022-08-09T14:49:26.774Z,32.31
2022-08-09T14:51:59.045Z,30.98
2022-08-09T14:54:27.666Z,31.05
2022-08-09T14:56:57.597Z,30.22
2022-08-09T14:59:26.944Z,30.35
2022-08-09T15:01:54.247Z,30.41
2022-08-09T15:04:23.328Z,30.96
2022-08-09T15:06:51.349Z,31.15
2022-08-09T15:10:03.602Z,30.97
2022-08-09T15:12:08.147Z,30.39
2022-08-09T15:14:38.774Z,30.75
2022-08-09T15:17:09.709Z,30.90
2022-08-09T15:19:59.620Z,29.96
2022-08-09T15:22:26.141Z,29.72
2022-08-09T15:24:53.812Z,31.12
2022-08-09T15:27:21.057Z,30.76
2022-08-09T15:30:56.876Z,30.94
2022-08-09T15:32:35.041Z,31.38
2022-08-09T15:35:01.831Z,31.40
2022-08-09T15:37:56.845Z,31.63
2022-08-09T15:40:33.676Z,31.06
2022-08-09T15:43:00.528Z,31.47
2022-08-09T15:45:29.705Z,31.56
2022-08-09T15:48:05.258Z,30.98
2022-08-09T15:50:39.238Z,31.16
2022-08-09T15:53:17.830Z,31.42
2022-08-09T15:56:21.052Z,31.01
2022-08-09T15:58:43.004Z,30.85
2022-08-09T16:01:09.498Z,31.06
2022-08-09T16:03:38.576Z,31.01
2022-08-09T16:06:27.299Z,30.60
2022-08-09T16:08:55.945Z,31.67
2022-08-09T16:11:22.415Z,31.10
2022-08-09T16:14:02.961Z,31.32
2022-08-09T16:16:34.778Z,31.20
2022-08-09T16:19:04.776Z,30.44
2022-08-09T16:21:35.095Z,30.75
2022-08-09T16:24:03.044Z,31.10
2022-08-09T16:26:34.594Z,31.26
2022-08-09T16:29:12.870Z,31.07
2022-08-09T16:32:19.577Z,31.56
2022-08-09T16:34:56.417Z,31.51
2022-08-09T16:37:53.982Z,30.87
2022-08-09T16:40:11.907Z,31.03
2022-08-09T16:42:45.563Z,30.89
2022-08-09T16:45:19.505Z,31.23
2022-08-09T16:48:39.804Z,31.42
2022-08-09T16:50:34.860Z,31.42
2022-08-09T16:53:05.751Z,31.75
2022-08-09T16:55:57.862Z,31.71
2022-08-09T16:58:19.473Z,31.89
2022-08-09T17:00:48.284Z,31.58
2022-08-09T17:03:21.443Z,32.10
2022-08-09T17:06:06.853Z,32.07
2022-08-09T17:08:45.794Z,32.00
2022-08-09T17:11:24.363Z,31.61
2022-08-09T17:14:01.639Z,32.11
2022-08-09T17:16:28.665Z,31.70
2022-08-09T17:18:55.252Z,32.18
2022-08-09T17:21:21.829Z,32.19
2022-08-09T17:24:27.017Z,31.87
2022-08-09T17:26:53.844Z,32.27
2022-08-09T17:29:21.020Z,32.30
2022-08-09T17:31:49.251Z,32.34
2022-08-09T17:35:02.026Z,32.39
2022-08-09T17:37:03.685Z,32.43
2022-08-09T17:39:52.066Z,32.60
2022-08-09T17:42:41.505Z,32.47
2022-08-09T17:45:06.590Z,32.76
2022-08-09T17:47:49.969Z,32.88
2022-08-09T17:50:36.326Z,32.98
2022-08-09T17:53:19.471Z,32.78
2022-08-09T17:55:51.262Z,33.56
2022-08-09T17:58:24.185Z,33.25
2022-08-09T18:00:54.911Z,33.51
2022-08-09T18:03:23.802Z,33.19
2022-08-09T18:05:53.250Z,33.64
2022-08-09T18:08:22.240Z,33.76
2022-08-09T18:11:00.639Z,33.73
2022-08-09T18:13:40.764Z,33.64
2022-08-09T18:16:14.712Z,33.46
2022-08-09T18:18:49.055Z,33.49
2022-08-09T18:21:21.399Z,33.60
2022-08-09T18:24:10.808Z,33.82
2022-08-09T18:26:38.396Z,33.64
2022-08-09T18:30:42.913Z,34.11
2022-08-09T18:32:03.371Z,33.98
2022-08-09T18:34:34.810Z,34.08
2022-08-09T18:37:02.423Z,33.97
2022-08-09T18:39:32.124Z,34.15
2022-08-09T18:42:05.283Z,34.46
2022-08-09T18:44:35.107Z,34.20
2022-08-09T18:47:07.365Z,34.67
2022-08-09T18:49:41.718Z,34.78
2022-08-09T18:52:13.185Z,34.40
2022-08-09T18:54:42.010Z,34.70
2022-08-09T18:57:16.396Z,34.52
2022-08-09T18:59:51.117Z,35.04
2022-08-09T19:02:20.068Z,35.06
2022-08-09T19:05:04.371Z,35.38
2022-08-09T19:07:34.131Z,35.15
2022-08-09T19:10:14.533Z,35.36
2022-08-09T19:12:45.502Z,35.78
2022-08-09T19:15:17.966Z,36.07
2022-08-09T19:17:54.529Z,36.30
2022-08-09T19:20:23.234Z,36.03
2022-08-09T19:22:54.704Z,35.95
2022-08-09T19:25:41.255Z,36.65
2022-08-09T19:28:13.188Z,36.04
2022-08-09T19:30:44.415Z,36.41
2022-08-09T19:33:19.489Z,36.38
2022-08-09T19:35:56.820Z,36.32
2022-08-09T19:38:25.509Z,36.98
2022-08-09T19:40:52.897Z,36.98
2022-08-09T19:43:57.821Z,37.34
2022-08-09T19:46:08.433Z,37.75
2022-08-09T19:49:01.477Z,37.87
2022-08-09T19:51:27.714Z,38.00
2022-08-09T19:54:01.167Z,38.71
2022-08-09T19:56:29.556Z,39.00
2022-08-09T19:59:39.815Z,38.46
2022-08-09T20:01:52.305Z,38.69
2022-08-09T20:04:37.342Z,39.03
2022-08-09T20:07:12.358Z,39.50
2022-08-09T20:09:47.651Z,39.19
2022-08-09T20:12:29.864Z,39.38
2022-08-09T20:15:02.078Z,39.46
2022-08-09T20:17:48.107Z,39.43
2022-08-09T20:20:15.680Z,39.88
2022-08-09T20:22:46.463Z,40.09
2022-08-09T20:25:13.121Z,40.42
2022-08-09T20:27:49.028Z,40.17
2022-08-09T20:30:17.895Z,40.60
2022-08-09T20:32:48.206Z,40.30
2022-08-09T20:35:18.604Z,40.53
2022-08-09T20:38:20.584Z,41.08
2022-08-09T20:40:31.621Z,40.81
2022-08-09T20:43:00.421Z,40.61
2022-08-09T20:45:59.462Z,41.04
2022-08-09T20:48:31.933Z,41.46
2022-08-09T20:51:00.276Z,41.14
2022-08-09T20:53:36.178Z,41.22
2022-08-09T20:56:08.872Z,41.62
2022-08-09T20:58:35.847Z,41.35
2022-08-09T21:01:32.554Z,41.56
2022-08-09T21:05:48.342Z,41.84
2022-08-09T21:06:41.444Z,41.83
2022-08-09T21:09:13.607Z,41.93
2022-08-09T21:14:27.521Z,41.88
2022-08-09T21:16:57.884Z,42.21
2022-08-09T21:20:18.639Z,42.49
2022-08-09T21:22:36.009Z,42.13
2022-08-09T21:25:17.531Z,42.46
2022-08-09T21:27:52.157Z,42.45
2022-08-09T21:30:22.257Z,43.01
2022-08-09T21:32:49.297Z,42.75
2022-08-09T21:35:16.516Z,42.56
2022-08-09T21:37:58.641Z,42.49
2022-08-09T21:40:30.582Z,42.69
2022-08-09T21:43:00.006Z,43.01
2022-08-09T21:45:27.823Z,43.78
2022-08-09T21:47:54.321Z,43.62
2022-08-09T21:50:35.824Z,43.80
2022-08-09T21:53:06.942Z,43.75
2022-08-09T21:55:50.410Z,43.90
2022-08-09T21:58:16.894Z,43.91
2022-08-09T22:00:43.579Z,43.89
2022-08-09T22:03:25.313Z,43.97
2022-08-09T22:05:53.141Z,44.49
2022-08-09T22:08:24.744Z,44.43
2022-08-09T22:11:00.809Z,44.85
2022-08-09T22:13:42.217Z,44.53
2022-08-09T22:16:10.541Z,45.39
2022-08-09T22:18:52.947Z,44.44
2022-08-09T22:21:44.851Z,44.80
2022-08-09T22:24:17.216Z,44.64
2022-08-09T22:26:51.129Z,45.08
2022-08-09T22:29:19.305Z,44.96
2022-08-09T22:31:57.084Z,45.05
2022-08-09T22:34:28.060Z,44.91
2022-08-09T22:36:56.490Z,45.23
2022-08-09T22:39:55.544Z,45.65
2022-08-09T22:42:21.237Z,45.54
2022-08-09T22:45:00.278Z,45.75
2022-08-09T22:48:11.470Z,45.41
2022-08-09T22:50:23.144Z,45.79
2022-08-09T22:52:54.907Z,45.81
2022-08-09T22:55:29.638Z,46.20
2022-08-09T22:58:06.178Z,46.26
2022-08-09T23:00:32.634Z,46.53
2022-08-09T23:02:59.457Z,46.36
2022-08-09T23:05:25.994Z,46.42
2022-08-09T23:08:21.910Z,46.59
2022-08-09T23:10:55.881Z,46.86
2022-08-09T23:13:22.296Z,47.12
2022-08-09T23:16:02.158Z,47.52
2022-08-09T23:18:30.569Z,47.25
2022-08-09T23:20:57.098Z,47.77
2022-08-09T23:23:23.565Z,47.49
2022-08-09T23:25:50.103Z,47.29
2022-08-09T23:28:16.591Z,47.38
2022-08-09T23:30:50.875Z,47.86
2022-08-09T23:33:19.372Z,47.89
2022-08-09T23:36:04.392Z,47.99
2022-08-09T23:38:32.216Z,47.90
2022-08-09T23:40:58.751Z,48.01
2022-08-09T23:43:25.188Z,48.29
2022-08-09T23:45:51.656Z,48.37
2022-08-09T23:48:19.481Z,48.84
2022-08-09T23:50:45.970Z,48.77
2022-08-09T23:53:12.604Z,48.85
2022-08-09T23:55:39.155Z,49.32
2022-08-09T23:58:24.274Z,49.14
